sensor_id;sensor_type;location;lat;lon;timestamp;temperature;humidity
12268;DHT22;6196;48.398;11.736;2024-01-30T00:00:34;0.60;99.90
12268;DHT22;6196;48.398;11.736;2024-01-30T00:03:01;0.50;99.90
12268;DHT22;6196;48.398;11.736;2024-01-30T00:05:28;0.50;99.90
12268;DHT22;6196;48.398;11.736;2024-01-30T00:07:55;0.50;99.90
12268;DHT22;6196;48.398;11.736;2024-01-30T00:10:22;0.50;99.90
12268;DHT22;6196;48.398;11.736;2024-01-30T00:12:49;0.40;99.90
12268;DHT22;6196;48.398;11.736;2024-01-30T00:15:16;0.40;99.90
12268;DHT22;6196;48.398;11.736;2024-01-30T00:17:43;0.40;99.90
12268;DHT22;6196;48.398;11.736;2024-01-30T00:20:10;0.40;99.90
12268;DHT22;6196;48.398;11.736;2024-01-30T00:22:37;0.30;99.90
12268;DHT22;6196;48.398;11.736;2024-01-30T00:25:04;0.20;99.90
12268;DHT22;6196;48.398;11.736;2024-01-30T00:27:31;0.20;99.90
12268;DHT22;6196;48.398;11.736;2024-01-30T00:29:58;0.20;99.90
12268;DHT22;6196;48.398;11.736;2024-01-30T00:32:25;0.20;99.90
12268;DHT22;6196;48.398;11.736;2024-01-30T00:34:52;0.10;99.90
12268;DHT22;6196;48.398;11.736;2024-01-30T00:37:19;0.00;99.90
12268;DHT22;6196;48.398;11.736;2024-01-30T00:39:46;-0.10;99.90
12268;DHT22;6196;48.398;11.736;2024-01-30T00:42:13;-0.10;99.90
12268;DHT22;6196;48.398;11.736;2024-01-30T00:44:40;-0.10;99.90
12268;DHT22;6196;48.398;11.736;2024-01-30T00:47:07;-0.10;99.90
12268;DHT22;6196;48.398;11.736;2024-01-30T00:49:34;-0.10;99.90
12268;DHT22;6196;48.398;11.736;2024-01-30T00:52:02;-0.10;99.90
12268;DHT22;6196;48.398;11.736;2024-01-30T00:54:29;-0.10;99.90
12268;DHT22;6196;48.398;11.736;2024-01-30T00:56:56;-0.10;99.90
12268;DHT22;6196;48.398;11.736;2024-01-30T00:59:23;-0.20;99.90
12268;DHT22;6196;48.398;11.736;2024-01-30T01:01:50;-0.20;99.90
12268;DHT22;6196;48.398;11.736;2024-01-30T01:04:18;-0.20;99.90
12268;DHT22;6196;48.398;11.736;2024-01-30T01:06:45;-0.30;99.90
12268;DHT22;6196;48.398;11.736;2024-01-30T01:09:12;-0.20;99.90
12268;DHT22;6196;48.398;11.736;2024-01-30T01:11:39;-0.30;99.90
12268;DHT22;6196;48.398;11.736;2024-01-30T01:14:06;-0.30;99.90
12268;DHT22;6196;48.398;11.736;2024-01-30T01:16:34;-0.30;99.90
12268;DHT22;6196;48.398;11.736;2024-01-30T01:19:01;-0.30;99.90
12268;DHT22;6196;48.398;11.736;2024-01-30T01:21:28;-0.30;99.90
12268;DHT22;6196;48.398;11.736;2024-01-30T01:23:55;-0.30;99.90
12268;DHT22;6196;48.398;11.736;2024-01-30T01:26:23;-0.30;99.90
12268;DHT22;6196;48.398;11.736;2024-01-30T01:28:50;0.00;99.90
12268;DHT22;6196;48.398;11.736;2024-01-30T01:31:17;-0.30;99.90
12268;DHT22;6196;48.398;11.736;2024-01-30T01:33:45;-0.30;99.90
12268;DHT22;6196;48.398;11.736;2024-01-30T01:36:13;-0.30;99.90
12268;DHT22;6196;48.398;11.736;2024-01-30T01:38:40;-0.30;99.90
12268;DHT22;6196;48.398;11.736;2024-01-30T01:41:07;-0.30;99.90
12268;DHT22;6196;48.398;11.736;2024-01-30T01:43:34;-0.40;99.90
12268;DHT22;6196;48.398;11.736;2024-01-30T01:46:01;-0.40;99.90
12268;DHT22;6196;48.398;11.736;2024-01-30T01:48:29;-0.30;99.90
12268;DHT22;6196;48.398;11.736;2024-01-30T01:50:56;-0.50;99.90
12268;DHT22;6196;48.398;11.736;2024-01-30T01:53:24;-0.50;99.90
12268;DHT22;6196;48.398;11.736;2024-01-30T01:55:52;-0.50;99.90
12268;DHT22;6196;48.398;11.736;2024-01-30T01:58:20;-0.50;99.90
12268;DHT22;6196;48.398;11.736;2024-01-30T02:00:50;-0.50;99.90
12268;DHT22;6196;48.398;11.736;2024-01-30T02:03:18;-0.60;99.90
12268;DHT22;6196;48.398;11.736;2024-01-30T02:05:48;-0.60;99.90
12268;DHT22;6196;48.398;11.736;2024-01-30T02:08:17;-0.60;99.90
12268;DHT22;6196;48.398;11.736;2024-01-30T02:10:44;-0.60;99.90
12268;DHT22;6196;48.398;11.736;2024-01-30T02:13:11;-0.60;99.90
12268;DHT22;6196;48.398;11.736;2024-01-30T02:15:38;-0.60;99.90
12268;DHT22;6196;48.398;11.736;2024-01-30T02:18:05;-0.60;99.90
12268;DHT22;6196;48.398;11.736;2024-01-30T02:20:34;-0.60;99.90
12268;DHT22;6196;48.398;11.736;2024-01-30T02:23:02;-0.70;99.90
12268;DHT22;6196;48.398;11.736;2024-01-30T02:25:39;-0.70;99.90
12268;DHT22;6196;48.398;11.736;2024-01-30T02:28:13;-0.80;99.90
12268;DHT22;6196;48.398;11.736;2024-01-30T02:30:42;-0.80;99.90
12268;DHT22;6196;48.398;11.736;2024-01-30T02:33:09;-0.80;99.90
12268;DHT22;6196;48.398;11.736;2024-01-30T02:35:36;-0.80;99.90
12268;DHT22;6196;48.398;11.736;2024-01-30T02:38:03;-0.80;99.90
12268;DHT22;6196;48.398;11.736;2024-01-30T02:40:31;-0.90;99.90
12268;DHT22;6196;48.398;11.736;2024-01-30T02:42:59;-0.90;99.90
12268;DHT22;6196;48.398;11.736;2024-01-30T02:45:27;-0.90;99.90
12268;DHT22;6196;48.398;11.736;2024-01-30T02:47:54;-0.90;99.90
12268;DHT22;6196;48.398;11.736;2024-01-30T02:50:21;-0.90;99.90
12268;DHT22;6196;48.398;11.736;2024-01-30T02:52:48;-0.90;99.90
12268;DHT22;6196;48.398;11.736;2024-01-30T02:55:15;-0.90;99.90
12268;DHT22;6196;48.398;11.736;2024-01-30T02:57:45;-0.80;99.90
12268;DHT22;6196;48.398;11.736;2024-01-30T03:00:13;-0.80;99.90
12268;DHT22;6196;48.398;11.736;2024-01-30T03:02:40;-0.90;99.90
12268;DHT22;6196;48.398;11.736;2024-01-30T03:05:08;-0.90;99.90
12268;DHT22;6196;48.398;11.736;2024-01-30T03:07:35;-1.00;99.90
12268;DHT22;6196;48.398;11.736;2024-01-30T03:10:04;-1.00;99.90
12268;DHT22;6196;48.398;11.736;2024-01-30T03:12:32;-1.00;99.90
12268;DHT22;6196;48.398;11.736;2024-01-30T03:14:59;-1.00;99.90
12268;DHT22;6196;48.398;11.736;2024-01-30T03:17:26;-1.10;99.90
12268;DHT22;6196;48.398;11.736;2024-01-30T03:19:53;-1.10;99.90
12268;DHT22;6196;48.398;11.736;2024-01-30T03:22:20;-1.10;99.90
12268;DHT22;6196;48.398;11.736;2024-01-30T03:24:47;-1.20;99.90
12268;DHT22;6196;48.398;11.736;2024-01-30T03:27:14;-1.20;99.90
12268;DHT22;6196;48.398;11.736;2024-01-30T03:29:41;-1.20;99.90
12268;DHT22;6196;48.398;11.736;2024-01-30T03:32:08;-1.20;99.90
12268;DHT22;6196;48.398;11.736;2024-01-30T03:34:34;-1.20;99.90
12268;DHT22;6196;48.398;11.736;2024-01-30T03:37:02;-1.20;99.90
12268;DHT22;6196;48.398;11.736;2024-01-30T03:39:29;-1.20;99.90
12268;DHT22;6196;48.398;11.736;2024-01-30T03:41:57;-1.20;99.90
12268;DHT22;6196;48.398;11.736;2024-01-30T03:44:24;-1.20;99.90
12268;DHT22;6196;48.398;11.736;2024-01-30T03:46:51;-1.20;99.90
12268;DHT22;6196;48.398;11.736;2024-01-30T03:49:17;-1.10;99.90
12268;DHT22;6196;48.398;11.736;2024-01-30T03:51:45;-1.20;99.90
12268;DHT22;6196;48.398;11.736;2024-01-30T03:54:14;-1.20;99.90
12268;DHT22;6196;48.398;11.736;2024-01-30T03:56:41;-1.20;99.90
12268;DHT22;6196;48.398;11.736;2024-01-30T03:59:08;-1.30;99.90
12268;DHT22;6196;48.398;11.736;2024-01-30T04:01:35;-1.30;99.90
12268;DHT22;6196;48.398;11.736;2024-01-30T04:04:02;-1.40;99.90
12268;DHT22;6196;48.398;11.736;2024-01-30T04:06:29;-1.50;99.90
12268;DHT22;6196;48.398;11.736;2024-01-30T04:08:56;-1.40;99.90
12268;DHT22;6196;48.398;11.736;2024-01-30T04:11:23;-1.40;99.90
12268;DHT22;6196;48.398;11.736;2024-01-30T04:13:50;-1.40;99.90
12268;DHT22;6196;48.398;11.736;2024-01-30T04:16:21;-1.40;99.90
12268;DHT22;6196;48.398;11.736;2024-01-30T04:18:51;-1.50;99.90
12268;DHT22;6196;48.398;11.736;2024-01-30T04:21:20;-1.60;99.90
12268;DHT22;6196;48.398;11.736;2024-01-30T04:23:48;-1.60;99.90
12268;DHT22;6196;48.398;11.736;2024-01-30T04:26:15;-1.60;99.90
12268;DHT22;6196;48.398;11.736;2024-01-30T04:28:44;-1.70;99.90
12268;DHT22;6196;48.398;11.736;2024-01-30T04:31:11;-1.70;99.90
12268;DHT22;6196;48.398;11.736;2024-01-30T04:33:38;-1.70;99.90
12268;DHT22;6196;48.398;11.736;2024-01-30T04:36:08;-1.70;99.90
12268;DHT22;6196;48.398;11.736;2024-01-30T04:38:38;-1.70;99.90
12268;DHT22;6196;48.398;11.736;2024-01-30T04:41:06;-1.70;99.90
12268;DHT22;6196;48.398;11.736;2024-01-30T04:43:33;-1.80;99.90
12268;DHT22;6196;48.398;11.736;2024-01-30T04:45:59;-1.80;99.90
12268;DHT22;6196;48.398;11.736;2024-01-30T04:48:27;-1.90;99.90
12268;DHT22;6196;48.398;11.736;2024-01-30T04:50:54;-1.90;99.90
12268;DHT22;6196;48.398;11.736;2024-01-30T04:53:22;-1.90;99.90
12268;DHT22;6196;48.398;11.736;2024-01-30T04:55:49;-1.90;99.90
12268;DHT22;6196;48.398;11.736;2024-01-30T04:58:16;-2.00;99.90
12268;DHT22;6196;48.398;11.736;2024-01-30T05:00:43;-2.00;99.90
12268;DHT22;6196;48.398;11.736;2024-01-30T05:03:10;-2.00;99.90
12268;DHT22;6196;48.398;11.736;2024-01-30T05:05:37;-1.90;99.90
12268;DHT22;6196;48.398;11.736;2024-01-30T05:08:05;-2.00;99.90
12268;DHT22;6196;48.398;11.736;2024-01-30T05:10:32;-1.90;99.90
12268;DHT22;6196;48.398;11.736;2024-01-30T05:12:59;-1.90;99.90
12268;DHT22;6196;48.398;11.736;2024-01-30T05:15:26;-1.90;99.90
12268;DHT22;6196;48.398;11.736;2024-01-30T05:17:52;-1.90;99.90
12268;DHT22;6196;48.398;11.736;2024-01-30T05:20:19;-1.90;99.90
12268;DHT22;6196;48.398;11.736;2024-01-30T05:22:46;-1.90;99.90
12268;DHT22;6196;48.398;11.736;2024-01-30T05:25:13;-1.90;99.90
12268;DHT22;6196;48.398;11.736;2024-01-30T05:27:40;-1.90;99.90
12268;DHT22;6196;48.398;11.736;2024-01-30T05:30:08;-1.90;99.90
12268;DHT22;6196;48.398;11.736;2024-01-30T05:32:35;-1.80;99.90
12268;DHT22;6196;48.398;11.736;2024-01-30T05:35:03;-1.80;99.90
12268;DHT22;6196;48.398;11.736;2024-01-30T05:37:30;-1.80;99.90
12268;DHT22;6196;48.398;11.736;2024-01-30T05:39:58;-1.80;99.90
12268;DHT22;6196;48.398;11.736;2024-01-30T05:42:25;-1.80;99.90
12268;DHT22;6196;48.398;11.736;2024-01-30T05:44:53;-1.80;99.90
12268;DHT22;6196;48.398;11.736;2024-01-30T05:47:20;-1.90;99.90
12268;DHT22;6196;48.398;11.736;2024-01-30T05:49:47;-1.90;99.90
12268;DHT22;6196;48.398;11.736;2024-01-30T05:52:13;-1.90;99.90
12268;DHT22;6196;48.398;11.736;2024-01-30T05:54:41;-2.00;99.90
12268;DHT22;6196;48.398;11.736;2024-01-30T05:57:09;-2.10;99.90
12268;DHT22;6196;48.398;11.736;2024-01-30T05:59:36;-2.10;99.90
12268;DHT22;6196;48.398;11.736;2024-01-30T06:02:07;-2.10;99.90
12268;DHT22;6196;48.398;11.736;2024-01-30T06:04:34;-2.20;99.90
12268;DHT22;6196;48.398;11.736;2024-01-30T06:07:01;-2.20;99.90
12268;DHT22;6196;48.398;11.736;2024-01-30T06:09:29;-2.20;99.90
12268;DHT22;6196;48.398;11.736;2024-01-30T06:11:56;-2.20;99.90
12268;DHT22;6196;48.398;11.736;2024-01-30T06:14:23;-2.10;99.90
12268;DHT22;6196;48.398;11.736;2024-01-30T06:16:50;-2.10;99.90
12268;DHT22;6196;48.398;11.736;2024-01-30T06:19:17;-2.20;99.90
12268;DHT22;6196;48.398;11.736;2024-01-30T06:21:44;-2.10;99.90
12268;DHT22;6196;48.398;11.736;2024-01-30T06:24:11;-2.10;99.90
12268;DHT22;6196;48.398;11.736;2024-01-30T06:26:38;-2.20;99.90
12268;DHT22;6196;48.398;11.736;2024-01-30T06:29:05;-2.20;99.90
12268;DHT22;6196;48.398;11.736;2024-01-30T06:31:32;-2.20;99.90
12268;DHT22;6196;48.398;11.736;2024-01-30T06:33:59;-2.20;99.90
12268;DHT22;6196;48.398;11.736;2024-01-30T06:36:26;-2.10;99.90
12268;DHT22;6196;48.398;11.736;2024-01-30T06:38:53;-2.10;99.90
12268;DHT22;6196;48.398;11.736;2024-01-30T06:41:20;-2.20;99.90
12268;DHT22;6196;48.398;11.736;2024-01-30T06:43:47;-2.30;99.90
12268;DHT22;6196;48.398;11.736;2024-01-30T06:46:14;-2.20;99.90
12268;DHT22;6196;48.398;11.736;2024-01-30T06:48:41;-2.10;99.90
12268;DHT22;6196;48.398;11.736;2024-01-30T06:51:11;-2.10;99.90
12268;DHT22;6196;48.398;11.736;2024-01-30T06:53:43;-2.10;99.90
12268;DHT22;6196;48.398;11.736;2024-01-30T06:56:10;-2.00;99.90
12268;DHT22;6196;48.398;11.736;2024-01-30T06:58:37;-2.00;99.90
12268;DHT22;6196;48.398;11.736;2024-01-30T07:01:04;-1.90;99.90
12268;DHT22;6196;48.398;11.736;2024-01-30T07:03:31;-1.90;99.90
12268;DHT22;6196;48.398;11.736;2024-01-30T07:05:58;-1.80;99.90
12268;DHT22;6196;48.398;11.736;2024-01-30T07:08:25;-1.70;99.90
12268;DHT22;6196;48.398;11.736;2024-01-30T07:10:52;-1.50;99.90
12268;DHT22;6196;48.398;11.736;2024-01-30T07:13:27;-1.40;99.90
12268;DHT22;6196;48.398;11.736;2024-01-30T07:15:55;-1.30;99.90
12268;DHT22;6196;48.398;11.736;2024-01-30T07:18:21;-1.10;99.90
12268;DHT22;6196;48.398;11.736;2024-01-30T07:20:49;-0.90;99.90
12268;DHT22;6196;48.398;11.736;2024-01-30T07:23:17;-0.70;99.90
12268;DHT22;6196;48.398;11.736;2024-01-30T07:25:44;-0.50;99.90
12268;DHT22;6196;48.398;11.736;2024-01-30T07:28:15;-0.20;99.90
12268;DHT22;6196;48.398;11.736;2024-01-30T07:30:46;0.00;99.90
12268;DHT22;6196;48.398;11.736;2024-01-30T07:33:14;0.10;99.90
12268;DHT22;6196;48.398;11.736;2024-01-30T07:35:41;0.20;99.90
12268;DHT22;6196;48.398;11.736;2024-01-30T07:38:08;0.20;99.90
12268;DHT22;6196;48.398;11.736;2024-01-30T07:40:35;0.50;99.90
12268;DHT22;6196;48.398;11.736;2024-01-30T07:43:02;0.70;99.90
12268;DHT22;6196;48.398;11.736;2024-01-30T07:45:30;0.90;99.90
12268;DHT22;6196;48.398;11.736;2024-01-30T07:47:59;1.10;99.90
12268;DHT22;6196;48.398;11.736;2024-01-30T07:50:27;1.40;99.90
12268;DHT22;6196;48.398;11.736;2024-01-30T07:52:56;1.70;99.90
12268;DHT22;6196;48.398;11.736;2024-01-30T07:55:23;2.10;99.90
12268;DHT22;6196;48.398;11.736;2024-01-30T07:57:54;2.40;99.90
12268;DHT22;6196;48.398;11.736;2024-01-30T08:00:22;2.70;99.90
12268;DHT22;6196;48.398;11.736;2024-01-30T08:02:49;3.00;99.90
12268;DHT22;6196;48.398;11.736;2024-01-30T08:05:16;3.40;99.90
12268;DHT22;6196;48.398;11.736;2024-01-30T08:07:43;3.60;99.90
12268;DHT22;6196;48.398;11.736;2024-01-30T08:10:11;3.90;99.90
12268;DHT22;6196;48.398;11.736;2024-01-30T08:12:39;4.20;99.90
12268;DHT22;6196;48.398;11.736;2024-01-30T08:15:06;4.60;99.90
12268;DHT22;6196;48.398;11.736;2024-01-30T08:17:34;5.00;99.90
12268;DHT22;6196;48.398;11.736;2024-01-30T08:20:01;5.20;99.90
12268;DHT22;6196;48.398;11.736;2024-01-30T08:22:30;5.50;99.90
12268;DHT22;6196;48.398;11.736;2024-01-30T08:24:57;5.70;99.90
12268;DHT22;6196;48.398;11.736;2024-01-30T08:27:24;5.70;99.90
12268;DHT22;6196;48.398;11.736;2024-01-30T08:29:51;5.90;99.90
12268;DHT22;6196;48.398;11.736;2024-01-30T08:32:18;6.30;99.90
12268;DHT22;6196;48.398;11.736;2024-01-30T08:34:45;6.50;99.90
12268;DHT22;6196;48.398;11.736;2024-01-30T08:37:12;6.60;99.90
12268;DHT22;6196;48.398;11.736;2024-01-30T08:39:43;6.90;99.90
12268;DHT22;6196;48.398;11.736;2024-01-30T08:42:10;7.10;99.90
12268;DHT22;6196;48.398;11.736;2024-01-30T08:44:38;7.40;99.90
12268;DHT22;6196;48.398;11.736;2024-01-30T08:47:05;7.90;99.90
12268;DHT22;6196;48.398;11.736;2024-01-30T08:49:32;8.30;99.90
12268;DHT22;6196;48.398;11.736;2024-01-30T08:51:59;8.50;99.90
12268;DHT22;6196;48.398;11.736;2024-01-30T08:54:26;8.80;99.90
12268;DHT22;6196;48.398;11.736;2024-01-30T08:56:53;8.60;99.90
12268;DHT22;6196;48.398;11.736;2024-01-30T08:59:22;8.80;99.90
12268;DHT22;6196;48.398;11.736;2024-01-30T09:01:49;9.40;99.90
12268;DHT22;6196;48.398;11.736;2024-01-30T09:04:32;9.90;99.90
12268;DHT22;6196;48.398;11.736;2024-01-30T09:06:59;9.80;99.90
12268;DHT22;6196;48.398;11.736;2024-01-30T09:09:26;10.30;99.90
12268;DHT22;6196;48.398;11.736;2024-01-30T09:11:53;10.50;99.90
12268;DHT22;6196;48.398;11.736;2024-01-30T09:14:20;10.80;99.90
12268;DHT22;6196;48.398;11.736;2024-01-30T09:16:47;10.90;99.90
12268;DHT22;6196;48.398;11.736;2024-01-30T09:19:15;10.90;99.90
12268;DHT22;6196;48.398;11.736;2024-01-30T09:21:42;10.90;99.90
12268;DHT22;6196;48.398;11.736;2024-01-30T09:24:09;10.40;99.90
12268;DHT22;6196;48.398;11.736;2024-01-30T09:26:36;10.50;99.90
12268;DHT22;6196;48.398;11.736;2024-01-30T09:29:03;10.40;99.90
12268;DHT22;6196;48.398;11.736;2024-01-30T09:31:30;10.10;99.90
12268;DHT22;6196;48.398;11.736;2024-01-30T09:33:58;10.70;99.90
12268;DHT22;6196;48.398;11.736;2024-01-30T09:36:25;11.00;99.90
12268;DHT22;6196;48.398;11.736;2024-01-30T09:38:52;10.70;99.90
12268;DHT22;6196;48.398;11.736;2024-01-30T09:41:19;9.40;99.90
12268;DHT22;6196;48.398;11.736;2024-01-30T09:43:48;9.70;99.90
12268;DHT22;6196;48.398;11.736;2024-01-30T09:46:16;10.70;99.90
12268;DHT22;6196;48.398;11.736;2024-01-30T09:48:47;11.70;99.90
12268;DHT22;6196;48.398;11.736;2024-01-30T09:51:15;12.30;99.90
12268;DHT22;6196;48.398;11.736;2024-01-30T09:53:43;12.10;99.90
12268;DHT22;6196;48.398;11.736;2024-01-30T09:56:13;12.00;99.90
12268;DHT22;6196;48.398;11.736;2024-01-30T09:58:40;11.80;99.90
12268;DHT22;6196;48.398;11.736;2024-01-30T10:01:08;12.20;99.90
12268;DHT22;6196;48.398;11.736;2024-01-30T10:03:35;11.60;99.90
12268;DHT22;6196;48.398;11.736;2024-01-30T10:06:03;11.70;99.90
12268;DHT22;6196;48.398;11.736;2024-01-30T10:08:30;12.60;99.90
12268;DHT22;6196;48.398;11.736;2024-01-30T10:10:57;12.80;99.90
12268;DHT22;6196;48.398;11.736;2024-01-30T10:13:25;11.50;99.90
12268;DHT22;6196;48.398;11.736;2024-01-30T10:15:53;11.90;99.90
12268;DHT22;6196;48.398;11.736;2024-01-30T10:18:24;12.20;99.90
12268;DHT22;6196;48.398;11.736;2024-01-30T10:20:51;11.60;99.90
12268;DHT22;6196;48.398;11.736;2024-01-30T10:23:18;12.00;99.90
12268;DHT22;6196;48.398;11.736;2024-01-30T10:25:46;11.40;99.90
12268;DHT22;6196;48.398;11.736;2024-01-30T10:28:14;11.90;99.90
12268;DHT22;6196;48.398;11.736;2024-01-30T10:30:41;12.60;99.90
12268;DHT22;6196;48.398;11.736;2024-01-30T10:33:08;13.80;99.90
12268;DHT22;6196;48.398;11.736;2024-01-30T10:35:35;13.90;99.90
12268;DHT22;6196;48.398;11.736;2024-01-30T10:38:03;14.40;99.90
12268;DHT22;6196;48.398;11.736;2024-01-30T10:40:33;13.90;99.90
12268;DHT22;6196;48.398;11.736;2024-01-30T10:43:03;13.30;99.90
12268;DHT22;6196;48.398;11.736;2024-01-30T10:45:31;12.90;99.90
12268;DHT22;6196;48.398;11.736;2024-01-30T10:47:59;13.60;99.90
12268;DHT22;6196;48.398;11.736;2024-01-30T10:50:30;13.40;99.90
12268;DHT22;6196;48.398;11.736;2024-01-30T10:52:58;13.30;99.90
12268;DHT22;6196;48.398;11.736;2024-01-30T10:55:27;13.20;99.90
12268;DHT22;6196;48.398;11.736;2024-01-30T10:57:55;12.70;99.90
12268;DHT22;6196;48.398;11.736;2024-01-30T11:00:22;12.70;99.90
12268;DHT22;6196;48.398;11.736;2024-01-30T11:02:51;13.90;99.90
12268;DHT22;6196;48.398;11.736;2024-01-30T11:05:25;15.50;99.90
12268;DHT22;6196;48.398;11.736;2024-01-30T11:07:59;16.50;99.90
12268;DHT22;6196;48.398;11.736;2024-01-30T11:10:47;17.50;99.10
12268;DHT22;6196;48.398;11.736;2024-01-30T11:13:15;18.10;98.90
12268;DHT22;6196;48.398;11.736;2024-01-30T11:15:42;18.40;97.30
12268;DHT22;6196;48.398;11.736;2024-01-30T11:18:09;17.20;96.50
12268;DHT22;6196;48.398;11.736;2024-01-30T11:20:36;16.90;96.90
12268;DHT22;6196;48.398;11.736;2024-01-30T11:23:03;16.10;97.50
12268;DHT22;6196;48.398;11.736;2024-01-30T11:25:33;16.00;97.00
12268;DHT22;6196;48.398;11.736;2024-01-30T11:28:00;16.40;97.10
12268;DHT22;6196;48.398;11.736;2024-01-30T11:30:28;16.80;96.60
12268;DHT22;6196;48.398;11.736;2024-01-30T11:35:36;17.00;94.80
12268;DHT22;6196;48.398;11.736;2024-01-30T11:38:05;16.90;95.20
12268;DHT22;6196;48.398;11.736;2024-01-30T11:40:34;17.10;95.60
12268;DHT22;6196;48.398;11.736;2024-01-30T11:43:02;17.40;95.70
12268;DHT22;6196;48.398;11.736;2024-01-30T11:45:32;18.60;95.20
12268;DHT22;6196;48.398;11.736;2024-01-30T11:48:00;19.50;94.20
12268;DHT22;6196;48.398;11.736;2024-01-30T11:50:33;20.50;92.90
12268;DHT22;6196;48.398;11.736;2024-01-30T11:53:01;20.80;91.60
12268;DHT22;6196;48.398;11.736;2024-01-30T11:55:31;20.90;89.10
12268;DHT22;6196;48.398;11.736;2024-01-30T11:58:01;21.10;86.80
12268;DHT22;6196;48.398;11.736;2024-01-30T12:00:30;21.40;86.80
12268;DHT22;6196;48.398;11.736;2024-01-30T12:03:01;22.00;85.70
12268;DHT22;6196;48.398;11.736;2024-01-30T12:05:30;22.70;83.00
12268;DHT22;6196;48.398;11.736;2024-01-30T12:07:57;22.30;81.00
12268;DHT22;6196;48.398;11.736;2024-01-30T12:10:28;22.00;82.90
12268;DHT22;6196;48.398;11.736;2024-01-30T12:12:56;21.80;81.90
12268;DHT22;6196;48.398;11.736;2024-01-30T12:15:24;21.30;84.00
12268;DHT22;6196;48.398;11.736;2024-01-30T12:17:51;21.50;84.60
12268;DHT22;6196;48.398;11.736;2024-01-30T12:20:19;22.40;83.80
12268;DHT22;6196;48.398;11.736;2024-01-30T12:22:49;23.40;78.40
12268;DHT22;6196;48.398;11.736;2024-01-30T12:25:18;23.30;76.30
12268;DHT22;6196;48.398;11.736;2024-01-30T12:27:48;23.20;77.10
12268;DHT22;6196;48.398;11.736;2024-01-30T12:30:20;23.10;76.10
12268;DHT22;6196;48.398;11.736;2024-01-30T12:32:50;23.40;77.20
12268;DHT22;6196;48.398;11.736;2024-01-30T12:35:19;20.00;75.50
12268;DHT22;6196;48.398;11.736;2024-01-30T12:37:48;17.80;82.50
12268;DHT22;6196;48.398;11.736;2024-01-30T12:40:16;15.40;87.40
12268;DHT22;6196;48.398;11.736;2024-01-30T12:42:46;14.70;90.80
12268;DHT22;6196;48.398;11.736;2024-01-30T12:45:16;15.80;91.20
12268;DHT22;6196;48.398;11.736;2024-01-30T12:47:46;16.70;90.80
12268;DHT22;6196;48.398;11.736;2024-01-30T12:50:14;17.60;90.10
12268;DHT22;6196;48.398;11.736;2024-01-30T12:52:43;16.20;87.20
12268;DHT22;6196;48.398;11.736;2024-01-30T12:55:14;14.60;90.30
12268;DHT22;6196;48.398;11.736;2024-01-30T12:57:41;14.20;92.70
12268;DHT22;6196;48.398;11.736;2024-01-30T13:00:09;15.90;92.70
12268;DHT22;6196;48.398;11.736;2024-01-30T13:02:37;16.80;92.00
12268;DHT22;6196;48.398;11.736;2024-01-30T13:05:04;17.50;91.00
12268;DHT22;6196;48.398;11.736;2024-01-30T13:07:32;18.10;89.50
12268;DHT22;6196;48.398;11.736;2024-01-30T13:09:59;18.10;89.20
12268;DHT22;6196;48.398;11.736;2024-01-30T13:12:30;18.30;88.50
12268;DHT22;6196;48.398;11.736;2024-01-30T13:14:59;18.50;87.80
12268;DHT22;6196;48.398;11.736;2024-01-30T13:17:27;18.00;86.90
12268;DHT22;6196;48.398;11.736;2024-01-30T13:19:55;18.00;87.60
12268;DHT22;6196;48.398;11.736;2024-01-30T13:22:28;18.20;87.20
12268;DHT22;6196;48.398;11.736;2024-01-30T13:24:55;18.40;87.90
12268;DHT22;6196;48.398;11.736;2024-01-30T13:27:22;18.90;85.10
12268;DHT22;6196;48.398;11.736;2024-01-30T13:29:49;19.60;84.80
12268;DHT22;6196;48.398;11.736;2024-01-30T13:32:16;20.10;83.30
12268;DHT22;6196;48.398;11.736;2024-01-30T13:34:43;20.40;81.70
12268;DHT22;6196;48.398;11.736;2024-01-30T13:37:10;20.50;81.90
12268;DHT22;6196;48.398;11.736;2024-01-30T13:39:37;19.70;81.60
12268;DHT22;6196;48.398;11.736;2024-01-30T13:42:05;17.80;84.80
12268;DHT22;6196;48.398;11.736;2024-01-30T13:44:35;17.30;84.10
12268;DHT22;6196;48.398;11.736;2024-01-30T13:47:02;16.20;86.40
12268;DHT22;6196;48.398;11.736;2024-01-30T13:49:29;17.00;88.40
12268;DHT22;6196;48.398;11.736;2024-01-30T13:51:57;17.90;87.20
12268;DHT22;6196;48.398;11.736;2024-01-30T13:54:25;18.20;85.50
12268;DHT22;6196;48.398;11.736;2024-01-30T13:56:51;19.20;84.10
12268;DHT22;6196;48.398;11.736;2024-01-30T13:59:18;17.80;84.60
12268;DHT22;6196;48.398;11.736;2024-01-30T14:01:50;17.90;86.70
12268;DHT22;6196;48.398;11.736;2024-01-30T14:04:17;18.60;85.40
12268;DHT22;6196;48.398;11.736;2024-01-30T14:06:45;18.60;87.40
12268;DHT22;6196;48.398;11.736;2024-01-30T14:09:22;18.70;87.10
12268;DHT22;6196;48.398;11.736;2024-01-30T14:11:49;18.90;86.30
12268;DHT22;6196;48.398;11.736;2024-01-30T14:14:16;19.00;86.80
12268;DHT22;6196;48.398;11.736;2024-01-30T14:16:43;18.20;85.60
12268;DHT22;6196;48.398;11.736;2024-01-30T14:19:10;17.50;87.30
12268;DHT22;6196;48.398;11.736;2024-01-30T14:21:37;16.80;85.70
12268;DHT22;6196;48.398;11.736;2024-01-30T14:24:06;15.90;86.70
12268;DHT22;6196;48.398;11.736;2024-01-30T14:26:33;15.10;90.10
12268;DHT22;6196;48.398;11.736;2024-01-30T14:29:00;14.80;90.00
12268;DHT22;6196;48.398;11.736;2024-01-30T14:31:27;14.60;90.60
12268;DHT22;6196;48.398;11.736;2024-01-30T14:33:54;14.20;91.40
12268;DHT22;6196;48.398;11.736;2024-01-30T14:36:21;13.90;90.90
12268;DHT22;6196;48.398;11.736;2024-01-30T14:38:48;13.50;92.60
12268;DHT22;6196;48.398;11.736;2024-01-30T14:41:15;13.60;92.30
12268;DHT22;6196;48.398;11.736;2024-01-30T14:43:42;13.40;94.10
12268;DHT22;6196;48.398;11.736;2024-01-30T14:46:09;13.20;94.10
12268;DHT22;6196;48.398;11.736;2024-01-30T14:48:37;13.10;95.40
12268;DHT22;6196;48.398;11.736;2024-01-30T14:51:04;12.90;95.80
12268;DHT22;6196;48.398;11.736;2024-01-30T14:53:31;12.70;96.50
12268;DHT22;6196;48.398;11.736;2024-01-30T14:55:58;12.40;97.10
12268;DHT22;6196;48.398;11.736;2024-01-30T14:58:25;12.30;97.90
12268;DHT22;6196;48.398;11.736;2024-01-30T15:00:52;12.10;99.00
12268;DHT22;6196;48.398;11.736;2024-01-30T15:03:19;12.00;99.80
12268;DHT22;6196;48.398;11.736;2024-01-30T15:05:51;11.80;99.90
12268;DHT22;6196;48.398;11.736;2024-01-30T15:08:18;11.50;99.90
12268;DHT22;6196;48.398;11.736;2024-01-30T15:10:45;11.20;99.90
12268;DHT22;6196;48.398;11.736;2024-01-30T15:13:12;11.00;99.90
12268;DHT22;6196;48.398;11.736;2024-01-30T15:15:40;10.90;99.90
12268;DHT22;6196;48.398;11.736;2024-01-30T15:18:08;11.10;99.90
12268;DHT22;6196;48.398;11.736;2024-01-30T15:20:38;11.10;99.90
12268;DHT22;6196;48.398;11.736;2024-01-30T15:23:05;11.50;99.90
12268;DHT22;6196;48.398;11.736;2024-01-30T15:25:31;11.70;99.90
12268;DHT22;6196;48.398;11.736;2024-01-30T15:27:58;11.70;99.90
12268;DHT22;6196;48.398;11.736;2024-01-30T15:30:25;11.10;99.90
12268;DHT22;6196;48.398;11.736;2024-01-30T15:32:52;11.00;99.90
12268;DHT22;6196;48.398;11.736;2024-01-30T15:35:19;10.70;99.90
12268;DHT22;6196;48.398;11.736;2024-01-30T15:37:46;10.40;99.90